»·PEaware :: SWA280 KOAK-KPDX

SWA280 :: KOAK-KPDX

FLIGHT INFORMATION

Flight Status: Arrived
Operator:
Southwest Airlines
More flights by this operator :: More flights under this callsign
Pilot: Anonymous 17611 (17611)
Aircraft: BOEING 737-800
(B738)
More flights by this aircraft type
Origin: KOAK Metro Oakland Intl
United States
Destination: KPDX Portland Intl
United States
More flights between these airports :: More routes between these airports
Route: +OAK2 GRTFL MACHU TMBRS2
File this flight plan on PilotEdge
Remarks:
Altitude:
(Current/Filed)
32,000ft
Speed:
(Current/Filed)
480kts
Departed: 27-Dec-17 11:15 AM
Arrived: 27-Dec-17 12:47 PM
Distance/Time
Traveled:
472nm/1:31
Distance/Time
To Go:
Arrived

Flight Plot

Page will automatically refresh every two minutes.

Flight plan parsing failed; only flown route is shown


Map Options




Map Legend


Flown Route
Filed Route
Departure Airport
Arrival Airport
Navaid (VOR, NDB)
Fix

Horizontal Profiles

Position Reports

Time Latitude Longitude Heading Altitude Ground
Speed
27-Dec-17 10:47 37.711404 -122.216348 125 11ft 0kts
27-Dec-17 10:48 37.711404 -122.216348 125 11ft 0kts
27-Dec-17 10:49 37.711404 -122.216348 125 11ft 0kts
27-Dec-17 10:50 37.711404 -122.216348 125 11ft 0kts
27-Dec-17 10:51 37.711404 -122.216348 125 11ft 0kts
27-Dec-17 10:52 37.711404 -122.216348 125 11ft 0kts
27-Dec-17 10:53 37.711404 -122.216348 125 11ft 0kts
27-Dec-17 10:54 37.711404 -122.216348 125 11ft 0kts
27-Dec-17 10:55 37.711404 -122.216348 125 11ft 0kts
27-Dec-17 10:56 37.711404 -122.216348 125 11ft 0kts
27-Dec-17 10:57 37.711404 -122.216348 125 11ft 0kts
27-Dec-17 10:58 37.711404 -122.216348 125 11ft 0kts
27-Dec-17 10:59 37.711404 -122.216348 125 11ft 0kts
27-Dec-17 11:00 37.711404 -122.216348 125 11ft 0kts
27-Dec-17 11:01 37.711404 -122.216348 125 11ft 0kts
27-Dec-17 11:02 37.711404 -122.216348 125 11ft 0kts
27-Dec-17 11:03 37.711404 -122.216348 125 11ft 0kts
27-Dec-17 11:04 37.711404 -122.216348 125 11ft 0kts
27-Dec-17 11:05 37.711404 -122.216348 125 11ft 0kts
27-Dec-17 11:06 37.711404 -122.216348 125 11ft 0kts
27-Dec-17 11:07 37.711404 -122.216348 125 11ft 0kts
27-Dec-17 11:08 37.711404 -122.216348 125 11ft 0kts
27-Dec-17 11:09 37.711404 -122.216348 125 11ft 0kts
27-Dec-17 11:10 37.711404 -122.216348 125 11ft 0kts
27-Dec-17 11:11 37.711619 -122.216738 125 11ft 2kts
27-Dec-17 11:12 37.712072 -122.216965 214 11ft 0kts
27-Dec-17 11:13 37.712127 -122.216909 216 11ft 0kts
27-Dec-17 11:14 37.712127 -122.216909 216 11ft 0kts
27-Dec-17 11:15 37.711887 -122.217132 215 11ft 5kts
27-Dec-17 11:16 37.709655 -122.216644 128 11ft 16kts
27-Dec-17 11:17 37.706106 -122.217333 132 11ft 16kts
27-Dec-17 11:18 37.702835 -122.213578 161 11ft 7kts
27-Dec-17 11:19 37.702670 -122.213509 163 11ft 0kts
27-Dec-17 11:20 37.702000 -122.213994 240 11ft 15kts
27-Dec-17 11:21 37.721448 -122.244344 309 883ft 169kts
27-Dec-17 11:22 37.749790 -122.288755 309 1778ft 209kts
27-Dec-17 11:23 37.789644 -122.350489 309 2709ft 247kts
27-Dec-17 11:24 37.832895 -122.418171 309 4647ft 252kts
27-Dec-17 11:25 37.880166 -122.485455 339 5720ft 259kts
27-Dec-17 11:26 37.939366 -122.441939 43 7690ft 273kts
27-Dec-17 11:27 37.995537 -122.369150 43 10539ft 316kts
27-Dec-17 11:28 38.058312 -122.285622 30 13861ft 335kts
27-Dec-17 11:29 38.146623 -122.259095 2 17262ft 336kts
27-Dec-17 11:30 38.240238 -122.246465 1 20456ft 347kts
27-Dec-17 11:31 38.337155 -122.233476 1 23350ft 359kts
27-Dec-17 11:32 38.436925 -122.240462 350 26019ft 365kts
27-Dec-17 11:33 38.537680 -122.251373 350 28972ft 361kts
27-Dec-17 11:34 38.635125 -122.261933 350 31699ft 350kts
27-Dec-17 11:35 38.734611 -122.272769 351 32364ft 382kts
27-Dec-17 11:36 38.845889 -122.284798 351 32352ft 413kts
27-Dec-17 11:37 38.960001 -122.297135 350 32344ft 412kts
27-Dec-17 11:38 39.074041 -122.309505 349 32337ft 413kts
27-Dec-17 11:39 39.187159 -122.321774 349 32344ft 413kts
27-Dec-17 11:40 39.295060 -122.333472 349 32349ft 413kts
27-Dec-17 11:41 39.408986 -122.345822 349 32354ft 412kts
27-Dec-17 11:42 39.523289 -122.358215 349 32353ft 413kts
27-Dec-17 11:43 39.637119 -122.370556 349 32352ft 413kts
27-Dec-17 11:44 39.751365 -122.382945 349 32350ft 413kts
27-Dec-17 11:45 39.865404 -122.395313 350 32342ft 414kts
27-Dec-17 11:46 39.983740 -122.408155 350 32350ft 430kts
27-Dec-17 11:47 40.102273 -122.421007 350 32350ft 430kts
27-Dec-17 11:48 40.220137 -122.433789 350 32352ft 429kts
27-Dec-17 11:49 40.339147 -122.446697 350 32344ft 430kts
27-Dec-17 11:50 40.457956 -122.459584 350 32344ft 429kts
27-Dec-17 11:51 40.576446 -122.472437 350 32343ft 429kts
27-Dec-17 11:52 40.695182 -122.485316 350 32342ft 429kts
27-Dec-17 11:53 40.814380 -122.498245 350 32341ft 429kts
27-Dec-17 11:54 40.932954 -122.511107 350 32341ft 429kts
27-Dec-17 11:55 41.051378 -122.523926 349 32354ft 423kts
27-Dec-17 11:56 41.164470 -122.536205 348 32384ft 418kts
27-Dec-17 11:57 41.280061 -122.548751 348 32404ft 418kts
27-Dec-17 11:58 41.395014 -122.561220 348 32406ft 419kts
27-Dec-17 11:59 41.510649 -122.573764 348 32405ft 418kts
27-Dec-17 12:00 41.626855 -122.581972 350 32404ft 420kts
27-Dec-17 12:01 41.743499 -122.589607 350 32403ft 419kts
27-Dec-17 12:02 41.859666 -122.597216 350 32402ft 420kts
27-Dec-17 12:03 41.976092 -122.604842 350 32401ft 420kts
27-Dec-17 12:04 42.092487 -122.612464 350 32400ft 420kts
27-Dec-17 12:05 42.207541 -122.620049 350 32395ft 420kts
27-Dec-17 12:06 42.323960 -122.627872 350 32388ft 420kts
27-Dec-17 12:07 42.440253 -122.635688 350 32386ft 420kts
27-Dec-17 12:08 42.556637 -122.643511 350 32386ft 420kts
27-Dec-17 12:09 42.672639 -122.651317 350 32395ft 419kts
27-Dec-17 12:10 42.788890 -122.659171 350 32395ft 419kts
27-Dec-17 12:11 42.905259 -122.667038 349 32394ft 418kts
27-Dec-17 12:12 43.020121 -122.674900 348 32388ft 412kts
27-Dec-17 12:13 43.133075 -122.682680 348 32376ft 411kts
27-Dec-17 12:14 43.247277 -122.690512 348 32355ft 411kts
27-Dec-17 12:15 43.361005 -122.698311 348 32353ft 411kts
27-Dec-17 12:16 43.474777 -122.706168 348 32351ft 411kts
27-Dec-17 12:17 43.588695 -122.714103 348 32344ft 411kts
27-Dec-17 12:18 43.702201 -122.722016 348 32336ft 410kts
27-Dec-17 12:19 43.816192 -122.729959 348 32335ft 410kts
27-Dec-17 12:20 43.929573 -122.737861 348 32334ft 410kts
27-Dec-17 12:21 44.043406 -122.745811 348 32332ft 410kts
27-Dec-17 12:22 44.147536 -122.752617 349 32234ft 342kts
27-Dec-17 12:23 44.243970 -122.743907 353 30461ft 353kts
27-Dec-17 12:24 44.342623 -122.734140 353 28686ft 359kts
27-Dec-17 12:25 44.442573 -122.724257 354 26887ft 364kts
27-Dec-17 12:26 44.543584 -122.714246 354 25063ft 363kts
27-Dec-17 12:27 44.642872 -122.704338 354 22961ft 356kts
27-Dec-17 12:28 44.739303 -122.694624 354 20689ft 342kts
27-Dec-17 12:29 44.832528 -122.685257 355 18496ft 333kts
27-Dec-17 12:30 44.923323 -122.676058 355 16043ft 314kts
27-Dec-17 12:31 45.005521 -122.667799 355 14156ft 294kts
27-Dec-17 12:32 45.085577 -122.659652 356 12445ft 285kts
27-Dec-17 12:33 45.162515 -122.651831 357 10813ft 277kts
27-Dec-17 12:34 45.226352 -122.647362 351 9696ft 248kts
27-Dec-17 12:35 45.290274 -122.646712 347 9752ft 249kts
27-Dec-17 12:36 45.349329 -122.686458 329 9404ft 245kts
27-Dec-17 12:37 45.408432 -122.729076 335 8113ft 237kts
27-Dec-17 12:38 45.466552 -122.762122 339 6612ft 217kts
27-Dec-17 12:39 45.521202 -122.792204 338 5186ft 218kts
27-Dec-17 12:40 45.551138 -122.864792 294 4048ft 211kts
27-Dec-17 12:41 45.574333 -122.941271 294 3945ft 211kts
27-Dec-17 12:42 45.597413 -123.016975 295 3944ft 211kts
27-Dec-17 12:43 45.620810 -123.093916 295 3947ft 213kts
27-Dec-17 12:44 45.649747 -123.148544 18 3938ft 208kts
27-Dec-17 12:45 45.696453 -123.103860 35 3960ft 208kts
27-Dec-17 12:46 45.716028 -123.027850 85 3958ft 226kts
27-Dec-17 12:47 45.718437 -122.944593 113 3459ft 218kts
27-Dec-17 12:48 45.692209 -122.872053 119 3480ft 210kts
27-Dec-17 12:49 45.665830 -122.803786 118 2872ft 196kts
27-Dec-17 12:50 45.641817 -122.741607 118 1936ft 179kts
27-Dec-17 12:51 45.621232 -122.688508 118 1100ft 149kts
27-Dec-17 12:52 45.601674 -122.638096 118 308ft 141kts
27-Dec-17 12:53 45.587892 -122.602218 99 21ft 19kts
27-Dec-17 12:54 45.588214 -122.599157 64 22ft 2kts
27-Dec-17 12:55 45.588660 -122.596922 27 24ft 0kts

Navigation Log

Ident Type
Flight plan parsing failed, navigation log unavailable